createdAt,value
2022-09-22T00:00:07.376Z,0.00
2022-09-22T00:01:07.490Z,0.00
2022-09-22T00:02:07.417Z,0.00
2022-09-22T00:03:07.353Z,0.00
2022-09-22T00:04:07.373Z,0.00
2022-09-22T00:05:07.334Z,0.00
2022-09-22T00:06:07.331Z,0.00
2022-09-22T00:07:07.312Z,0.00
2022-09-22T00:08:07.314Z,0.00
2022-09-22T00:09:07.388Z,0.00
2022-09-22T00:10:07.289Z,0.00
2022-09-22T00:11:07.294Z,0.00
2022-09-22T00:12:07.280Z,0.00
2022-09-22T00:13:07.273Z,0.00
2022-09-22T00:14:07.285Z,0.00
2022-09-22T00:15:07.259Z,0.00
2022-09-22T00:16:07.343Z,0.00
2022-09-22T00:17:07.245Z,0.00
2022-09-22T00:18:07.233Z,0.00
2022-09-22T00:19:07.235Z,0.00
2022-09-22T00:20:07.222Z,0.00
2022-09-22T00:21:07.222Z,0.00
2022-09-22T00:22:07.208Z,0.00
2022-09-22T00:23:07.204Z,0.00
2022-09-22T00:24:07.413Z,0.00
2022-09-22T00:25:07.175Z,0.00
2022-09-22T00:26:07.207Z,0.00
2022-09-22T00:27:07.164Z,0.00
2022-09-22T00:28:07.155Z,0.00
2022-09-22T00:29:07.143Z,0.00
2022-09-22T00:31:07.265Z,0.00
2022-09-22T00:32:07.705Z,0.00
2022-09-22T00:33:09.174Z,0.00
2022-09-22T00:34:08.313Z,0.00
2022-09-22T00:35:08.306Z,0.00
2022-09-22T00:36:08.297Z,0.00
2022-09-22T00:37:08.295Z,0.00
2022-09-22T00:38:08.272Z,0.00
2022-09-22T00:39:08.268Z,0.00
2022-09-22T00:40:08.323Z,0.00
2022-09-22T00:41:08.256Z,0.00
2022-09-22T00:42:08.255Z,0.00
2022-09-22T00:43:08.267Z,0.00
2022-09-22T00:44:08.270Z,0.00
2022-09-22T00:45:08.222Z,0.00
2022-09-22T00:46:08.213Z,0.00
2022-09-22T00:47:08.222Z,0.00
2022-09-22T00:48:08.207Z,0.00
2022-09-22T00:49:08.201Z,0.00
2022-09-22T00:50:08.176Z,0.00
2022-09-22T00:51:09.171Z,0.00
2022-09-22T00:52:08.181Z,0.00
2022-09-22T00:53:08.160Z,0.00
2022-09-22T00:54:08.158Z,0.00
2022-09-22T00:55:08.151Z,0.00
2022-09-22T00:56:09.113Z,0.00
2022-09-22T00:57:08.133Z,0.00
2022-09-22T00:58:08.126Z,0.00
2022-09-22T00:59:08.183Z,0.00
2022-09-22T01:00:08.129Z,0.00
2022-09-22T01:01:08.146Z,0.00
2022-09-22T01:02:08.145Z,0.00
2022-09-22T01:03:08.072Z,0.00
2022-09-22T01:04:08.082Z,0.00
2022-09-22T01:05:08.071Z,0.00
2022-09-22T01:06:08.068Z,0.00
2022-09-22T01:07:08.681Z,0.00
2022-09-22T01:08:08.038Z,0.00
2022-09-22T01:09:08.028Z,0.00
2022-09-22T01:10:08.042Z,0.00
2022-09-22T01:11:08.010Z,0.00
2022-09-22T01:12:08.027Z,0.00
2022-09-22T01:13:08.015Z,0.00
2022-09-22T01:14:08.046Z,0.00
2022-09-22T01:15:07.987Z,0.00
2022-09-22T01:16:08.033Z,0.00
2022-09-22T01:17:07.964Z,0.00
2022-09-22T01:18:07.966Z,0.00
2022-09-22T01:19:07.949Z,0.00
2022-09-22T01:20:07.934Z,0.00
2022-09-22T01:21:07.941Z,0.00
2022-09-22T01:22:07.930Z,0.00
2022-09-22T01:23:07.927Z,0.00
2022-09-22T01:24:07.905Z,0.00
2022-09-22T01:25:07.917Z,0.00
2022-09-22T01:26:07.901Z,0.00
2022-09-22T01:27:07.892Z,0.00
2022-09-22T01:28:08.679Z,0.00
2022-09-22T01:29:07.881Z,0.00
2022-09-22T01:30:07.876Z,0.00
2022-09-22T01:31:07.886Z,0.00
2022-09-22T01:32:07.848Z,0.00
2022-09-22T01:33:07.895Z,0.00
2022-09-22T01:34:07.831Z,0.00
2022-09-22T01:35:07.822Z,0.00
2022-09-22T01:36:07.821Z,0.00
2022-09-22T01:37:07.808Z,0.00
2022-09-22T01:38:07.794Z,0.00
2022-09-22T01:39:08.795Z,0.00
2022-09-22T01:40:07.857Z,0.00
2022-09-22T01:41:07.770Z,0.00
2022-09-22T01:42:07.776Z,0.00
2022-09-22T01:43:07.751Z,0.00
2022-09-22T01:44:07.756Z,0.00
2022-09-22T01:45:07.745Z,0.00
2022-09-22T01:46:07.808Z,0.00
2022-09-22T01:47:07.736Z,0.00
2022-09-22T01:48:07.717Z,0.00
2022-09-22T01:49:07.718Z,0.00
2022-09-22T01:50:07.708Z,0.00
2022-09-22T01:51:07.722Z,0.00
2022-09-22T01:52:07.695Z,0.00
2022-09-22T01:53:07.678Z,0.00
2022-09-22T01:54:07.679Z,0.00
2022-09-22T01:55:07.669Z,0.00
2022-09-22T01:56:07.661Z,0.00
2022-09-22T01:57:07.638Z,0.00
2022-09-22T01:58:07.632Z,0.00
2022-09-22T01:59:07.625Z,0.00
2022-09-22T02:00:07.620Z,0.00
2022-09-22T02:01:10.967Z,0.00
2022-09-22T02:02:09.747Z,0.00
2022-09-22T02:03:07.599Z,0.00
2022-09-22T02:04:07.581Z,0.00
2022-09-22T02:05:07.577Z,0.00
2022-09-22T02:06:07.584Z,0.00
2022-09-22T02:07:07.573Z,0.00
2022-09-22T02:08:08.194Z,0.00
2022-09-22T02:09:07.681Z,0.00
2022-09-22T02:10:07.562Z,0.00
2022-09-22T02:11:07.546Z,0.00
2022-09-22T02:12:07.525Z,0.00
2022-09-22T02:13:07.532Z,0.00
2022-09-22T02:14:07.516Z,0.00
2022-09-22T02:15:07.496Z,0.00
2022-09-22T02:16:07.553Z,0.00
2022-09-22T02:17:07.519Z,0.00
2022-09-22T02:18:07.484Z,0.00
2022-09-22T02:19:12.953Z,0.00
2022-09-22T02:20:09.466Z,0.00
2022-09-22T02:21:07.462Z,0.00
2022-09-22T02:22:07.454Z,0.00
2022-09-22T02:23:07.442Z,0.00
2022-09-22T02:24:07.586Z,0.00
2022-09-22T02:25:07.443Z,0.00
2022-09-22T02:26:07.412Z,0.00
2022-09-22T02:27:07.409Z,0.00
2022-09-22T02:28:07.407Z,0.00
2022-09-22T02:29:07.413Z,0.00
2022-09-22T02:30:07.397Z,0.00
2022-09-22T02:31:21.752Z,0.00
2022-09-22T02:32:09.437Z,0.00
2022-09-22T02:33:07.360Z,0.00
2022-09-22T02:34:07.356Z,0.00
2022-09-22T02:35:07.357Z,0.00
2022-09-22T02:36:07.337Z,0.00
2022-09-22T02:37:07.340Z,0.00
2022-09-22T02:38:07.326Z,0.00
2022-09-22T02:39:07.760Z,0.00
2022-09-22T02:40:07.357Z,0.00
2022-09-22T02:41:07.305Z,0.00
2022-09-22T02:42:07.307Z,0.00
2022-09-22T02:43:07.296Z,0.00
2022-09-22T02:44:07.283Z,0.00
2022-09-22T02:45:07.707Z,0.00
2022-09-22T02:46:07.316Z,0.00
2022-09-22T02:47:07.303Z,0.00
2022-09-22T02:48:07.301Z,0.00
2022-09-22T02:49:08.201Z,0.00
2022-09-22T02:50:07.246Z,0.00
2022-09-22T02:51:07.214Z,0.00
2022-09-22T02:52:07.209Z,0.00
2022-09-22T02:53:07.201Z,0.00
2022-09-22T02:54:07.257Z,0.00
2022-09-22T02:55:07.200Z,0.00
2022-09-22T02:56:07.176Z,0.00
2022-09-22T02:57:07.176Z,0.00
2022-09-22T02:58:07.162Z,0.00
2022-09-22T02:59:07.150Z,0.00
2022-09-22T03:00:07.151Z,0.00
2022-09-22T03:01:07.175Z,0.00
2022-09-22T03:02:07.130Z,0.00
2022-09-22T03:03:07.123Z,0.00
2022-09-22T03:04:07.112Z,0.00
2022-09-22T03:05:07.161Z,0.00
2022-09-22T03:06:07.092Z,0.00
2022-09-22T03:07:07.098Z,0.00
2022-09-22T03:08:07.074Z,0.00
2022-09-22T03:09:07.240Z,0.00
2022-09-22T03:10:07.065Z,0.00
2022-09-22T03:11:07.050Z,0.00
2022-09-22T03:12:07.050Z,0.00
2022-09-22T03:13:16.396Z,0.00
2022-09-22T03:14:09.063Z,0.00
2022-09-22T03:15:07.031Z,0.00
2022-09-22T03:16:07.067Z,0.00
2022-09-22T03:17:07.006Z,0.00
2022-09-22T03:18:06.992Z,0.00
2022-09-22T03:19:06.987Z,0.00
2022-09-22T03:20:06.992Z,0.00
2022-09-22T03:21:06.981Z,0.00
2022-09-22T03:22:06.972Z,0.00
2022-09-22T03:23:06.971Z,0.00
2022-09-22T03:24:07.075Z,0.00
2022-09-22T03:25:06.951Z,0.00
2022-09-22T03:26:07.699Z,0.00
2022-09-22T03:27:06.936Z,0.00
2022-09-22T03:28:06.929Z,0.00
2022-09-22T03:29:06.916Z,0.00
2022-09-22T03:30:06.902Z,0.00
2022-09-22T03:31:06.983Z,0.00
2022-09-22T03:32:06.895Z,0.00
2022-09-22T03:33:07.711Z,0.00
2022-09-22T03:34:06.876Z,0.00
2022-09-22T03:35:06.873Z,0.00
2022-09-22T03:36:06.856Z,0.00
2022-09-22T03:37:07.109Z,0.00
2022-09-22T03:38:54.754Z,0.00
2022-09-22T03:39:54.714Z,0.00
2022-09-22T03:40:54.704Z,0.00
2022-09-22T03:41:54.708Z,0.00
2022-09-22T03:42:54.701Z,0.00
2022-09-22T03:43:54.683Z,0.00
2022-09-22T03:44:54.682Z,0.00
2022-09-22T03:45:54.705Z,0.00
2022-09-22T03:46:54.662Z,0.00
2022-09-22T03:47:54.660Z,0.00
2022-09-22T03:48:54.642Z,0.00
2022-09-22T03:49:54.634Z,0.00
2022-09-22T03:50:55.722Z,0.00
2022-09-22T03:51:55.723Z,0.00
2022-09-22T03:52:55.705Z,0.00
2022-09-22T03:53:55.701Z,0.00
2022-09-22T03:54:55.697Z,0.00
2022-09-22T03:55:55.680Z,0.00
2022-09-22T03:56:55.713Z,0.00
2022-09-22T03:57:55.651Z,0.00
2022-09-22T03:58:56.659Z,0.00
2022-09-22T03:59:55.636Z,0.00
2022-09-22T04:00:56.707Z,0.00
2022-09-22T04:01:58.359Z,0.00
2022-09-22T04:02:56.618Z,0.00
2022-09-22T04:03:55.674Z,0.00
2022-09-22T04:04:55.605Z,0.00
2022-09-22T04:05:55.624Z,0.00
2022-09-22T04:06:55.590Z,0.00
2022-09-22T04:07:55.592Z,0.00
2022-09-22T04:08:55.581Z,0.00
2022-09-22T04:09:55.567Z,0.00
2022-09-22T04:10:55.564Z,0.00
2022-09-22T04:11:55.552Z,0.00
2022-09-22T04:12:55.544Z,0.00
2022-09-22T04:13:55.545Z,0.00
2022-09-22T04:14:55.526Z,0.00
2022-09-22T04:15:55.519Z,0.00
2022-09-22T04:16:55.574Z,0.00
2022-09-22T04:17:55.505Z,0.00
2022-09-22T04:18:55.502Z,0.00
2022-09-22T04:19:55.494Z,0.00
2022-09-22T04:20:55.482Z,0.00
2022-09-22T04:21:57.360Z,0.00
2022-09-22T04:22:56.494Z,0.00
2022-09-22T04:23:55.482Z,0.00
2022-09-22T04:24:55.523Z,0.00
2022-09-22T04:25:55.449Z,0.00
2022-09-22T04:27:19.127Z,0.00
2022-09-22T04:27:57.424Z,0.00
2022-09-22T04:28:55.439Z,0.00
2022-09-22T04:29:55.435Z,0.00
2022-09-22T04:30:55.463Z,0.00
2022-09-22T04:31:55.397Z,0.00
2022-09-22T04:32:55.383Z,0.00
2022-09-22T04:33:55.388Z,0.00
2022-09-22T04:34:55.384Z,0.00
2022-09-22T04:35:55.359Z,0.00
2022-09-22T04:36:55.360Z,0.00
2022-09-22T04:37:55.359Z,0.00
2022-09-22T04:38:55.341Z,0.00
2022-09-22T04:39:55.348Z,0.00
2022-09-22T04:40:55.337Z,0.00
2022-09-22T04:41:55.326Z,0.00
2022-09-22T04:42:55.313Z,0.00
2022-09-22T04:43:55.310Z,0.00
2022-09-22T04:44:55.306Z,0.00
2022-09-22T04:45:55.371Z,0.00
2022-09-22T04:46:55.282Z,0.00
2022-09-22T04:47:55.271Z,0.00
2022-09-22T04:48:55.259Z,0.00
2022-09-22T04:49:55.259Z,0.00
2022-09-22T04:50:55.269Z,0.00
2022-09-22T04:51:55.241Z,0.00
2022-09-22T04:52:55.240Z,0.00
2022-09-22T04:53:55.227Z,0.00
2022-09-22T04:54:55.249Z,0.00
2022-09-22T04:55:55.215Z,0.00
2022-09-22T04:56:55.205Z,0.00
2022-09-22T04:57:55.197Z,0.00
2022-09-22T04:58:55.187Z,0.00
2022-09-22T04:59:55.165Z,0.00
2022-09-22T05:00:55.212Z,0.00
2022-09-22T05:01:55.152Z,0.00
2022-09-22T05:02:55.199Z,0.00
2022-09-22T05:03:55.134Z,0.00
2022-09-22T05:04:55.126Z,0.00
2022-09-22T05:05:55.132Z,0.00
2022-09-22T05:06:55.134Z,0.00
2022-09-22T05:07:56.096Z,0.00
2022-09-22T05:08:55.096Z,5.62
2022-09-22T05:09:55.089Z,5.62
2022-09-22T05:10:55.086Z,5.62
2022-09-22T05:11:55.070Z,5.62
2022-09-22T05:12:55.070Z,5.62
2022-09-22T05:13:55.062Z,5.62
2022-09-22T05:14:55.059Z,5.62
2022-09-22T05:15:55.046Z,5.62
2022-09-22T05:16:55.092Z,5.62
2022-09-22T05:17:55.035Z,5.62
2022-09-22T05:18:55.014Z,11.25
2022-09-22T05:19:55.020Z,11.25
2022-09-22T05:20:55.100Z,11.25
2022-09-22T05:21:55.032Z,11.25
2022-09-22T05:22:54.986Z,11.25
2022-09-22T05:23:54.983Z,11.25
2022-09-22T05:24:54.968Z,16.88
2022-09-22T05:25:54.957Z,16.88
2022-09-22T05:26:54.983Z,16.88
2022-09-22T05:27:54.929Z,16.88
2022-09-22T05:28:55.958Z,16.88
2022-09-22T05:29:54.927Z,22.50
2022-09-22T05:30:54.928Z,22.50
2022-09-22T05:31:54.976Z,22.50
2022-09-22T05:32:54.899Z,22.50
2022-09-22T05:33:54.898Z,22.50
2022-09-22T05:34:54.900Z,22.50
2022-09-22T05:35:54.899Z,22.50
2022-09-22T05:36:54.870Z,22.50
2022-09-22T05:37:54.874Z,28.12
2022-09-22T05:38:54.862Z,28.12
2022-09-22T05:39:54.851Z,28.12
2022-09-22T05:40:54.850Z,33.75
2022-09-22T05:41:54.841Z,33.75
2022-09-22T05:42:54.831Z,33.75
2022-09-22T05:43:54.826Z,33.75
2022-09-22T05:44:54.823Z,39.38
2022-09-22T05:45:54.847Z,39.38
2022-09-22T05:46:54.828Z,39.38
2022-09-22T05:47:54.805Z,39.38
2022-09-22T05:48:54.778Z,39.38
2022-09-22T05:49:54.811Z,39.38
2022-09-22T05:50:54.761Z,45.00
2022-09-22T05:51:54.764Z,45.00
2022-09-22T05:52:54.750Z,45.00
2022-09-22T05:53:54.761Z,45.00
2022-09-22T05:54:54.732Z,45.00
2022-09-22T05:55:54.722Z,45.00
2022-09-22T05:56:54.717Z,50.62
2022-09-22T05:57:54.725Z,50.62
2022-09-22T05:58:54.713Z,50.62
2022-09-22T05:59:54.771Z,50.62
2022-09-22T06:00:54.757Z,56.25
2022-09-22T06:01:59.359Z,56.25
2022-09-22T06:02:56.737Z,56.25
2022-09-22T06:03:54.671Z,61.88
2022-09-22T06:04:54.645Z,61.88
2022-09-22T06:05:54.657Z,67.50
2022-09-22T06:06:54.649Z,67.50
2022-09-22T06:07:54.628Z,67.50
2022-09-22T06:08:54.743Z,73.12
2022-09-22T06:09:54.708Z,73.12
2022-09-22T06:10:54.626Z,73.12
2022-09-22T06:12:28.130Z,73.12
2022-09-22T06:12:54.585Z,78.75
2022-09-22T06:13:54.591Z,78.75
2022-09-22T06:14:54.566Z,78.75
2022-09-22T06:15:54.556Z,78.75
2022-09-22T06:16:55.561Z,84.38
2022-09-22T06:17:54.541Z,84.38
2022-09-22T06:18:54.539Z,84.38
2022-09-22T06:19:54.529Z,84.38
2022-09-22T06:20:54.524Z,84.38
2022-09-22T06:21:55.221Z,84.38
2022-09-22T06:22:55.139Z,90.00
2022-09-22T06:23:54.500Z,90.00
2022-09-22T06:24:54.512Z,90.00
2022-09-22T06:25:54.498Z,95.62
2022-09-22T06:26:54.747Z,101.25
2022-09-22T06:27:54.476Z,101.25
2022-09-22T06:28:54.525Z,101.25
2022-09-22T06:29:54.459Z,106.88
2022-09-22T06:30:54.447Z,106.88
2022-09-22T06:31:54.480Z,106.88
2022-09-22T06:32:55.436Z,106.88
2022-09-22T06:33:54.428Z,112.50
2022-09-22T06:34:54.418Z,118.12
2022-09-22T06:35:54.411Z,118.12
2022-09-22T06:36:54.420Z,118.12
2022-09-22T06:37:54.389Z,123.75
2022-09-22T06:38:54.397Z,123.75
2022-09-22T06:39:54.375Z,123.75
2022-09-22T06:40:54.441Z,129.38
2022-09-22T06:41:54.365Z,129.38
2022-09-22T06:42:54.371Z,129.38
2022-09-22T06:43:54.353Z,135.00
2022-09-22T06:44:54.355Z,135.00
2022-09-22T06:45:54.392Z,135.00
2022-09-22T06:46:54.315Z,140.62
2022-09-22T06:47:55.133Z,140.62
2022-09-22T06:48:54.298Z,140.62
2022-09-22T06:49:54.290Z,140.62
2022-09-22T06:50:54.304Z,140.62
2022-09-22T06:51:54.278Z,146.25
2022-09-22T06:52:54.263Z,146.25
2022-09-22T06:53:54.258Z,146.25
2022-09-22T06:54:54.256Z,151.88
2022-09-22T06:55:54.572Z,151.88
2022-09-22T06:56:54.241Z,151.88
2022-09-22T06:57:54.224Z,151.88
2022-09-22T06:59:09.406Z,151.88
2022-09-22T06:59:56.210Z,157.50
2022-09-22T07:00:54.447Z,163.12
2022-09-22T07:01:54.322Z,163.12
2022-09-22T07:02:54.193Z,168.75
2022-09-22T07:03:54.175Z,168.75
2022-09-22T07:04:54.166Z,168.75
2022-09-22T07:05:54.160Z,168.75
2022-09-22T07:06:54.152Z,168.75
2022-09-22T07:07:54.153Z,168.75
2022-09-22T07:08:54.135Z,180.00
2022-09-22T07:09:54.141Z,185.62
2022-09-22T07:10:54.117Z,191.25
2022-09-22T07:11:54.109Z,196.88
2022-09-22T07:12:54.111Z,202.50
2022-09-22T07:13:54.097Z,202.50
2022-09-22T07:14:54.077Z,208.12
2022-09-22T07:15:54.121Z,213.75
2022-09-22T07:16:54.063Z,219.38
2022-09-22T07:17:54.063Z,225.00
2022-09-22T07:18:54.057Z,225.00
2022-09-22T07:19:54.079Z,225.00
2022-09-22T07:20:54.046Z,236.25
2022-09-22T07:21:54.037Z,247.50
2022-09-22T07:22:54.030Z,247.50
2022-09-22T07:23:54.012Z,241.88
2022-09-22T07:24:53.995Z,236.25
2022-09-22T07:25:53.985Z,236.25
2022-09-22T07:26:53.986Z,236.25
2022-09-22T07:27:53.972Z,236.25
2022-09-22T07:28:53.974Z,236.25
2022-09-22T07:29:53.962Z,236.25
2022-09-22T07:30:53.963Z,236.25
2022-09-22T07:31:54.018Z,241.88
2022-09-22T07:32:53.929Z,241.88
2022-09-22T07:33:54.644Z,241.88
2022-09-22T07:34:53.913Z,247.50
2022-09-22T07:35:53.935Z,253.12
2022-09-22T07:36:53.903Z,258.75
2022-09-22T07:37:53.884Z,258.75
2022-09-22T07:38:53.877Z,253.12
2022-09-22T07:39:53.882Z,247.50
2022-09-22T07:40:53.863Z,241.88
2022-09-22T07:41:53.861Z,236.25
2022-09-22T07:42:53.846Z,241.88
2022-09-22T07:43:53.837Z,247.50
2022-09-22T07:44:53.839Z,253.12
2022-09-22T07:45:53.830Z,270.00
2022-09-22T07:46:53.873Z,275.62
2022-09-22T07:47:53.817Z,286.88
2022-09-22T07:48:53.798Z,292.50
2022-09-22T07:49:53.798Z,298.12
2022-09-22T07:50:53.787Z,303.75
2022-09-22T07:51:53.786Z,303.75
2022-09-22T07:52:53.773Z,303.75
2022-09-22T07:53:53.764Z,309.38
2022-09-22T07:54:53.759Z,315.00
2022-09-22T07:55:53.799Z,331.88
2022-09-22T07:56:53.737Z,354.38
2022-09-22T07:57:53.732Z,354.38
2022-09-22T07:58:53.726Z,354.38
2022-09-22T07:59:53.703Z,376.88
2022-09-22T08:00:54.744Z,388.12
2022-09-22T08:01:53.776Z,388.12
2022-09-22T08:02:53.703Z,393.75
2022-09-22T08:03:53.676Z,393.75
2022-09-22T08:04:53.673Z,393.75
2022-09-22T08:05:54.796Z,393.75
2022-09-22T08:06:53.652Z,393.75
2022-09-22T08:07:53.653Z,388.12
2022-09-22T08:08:53.656Z,382.50
2022-09-22T08:09:53.667Z,371.25
2022-09-22T08:10:53.624Z,371.25
2022-09-22T08:11:53.716Z,371.25
2022-09-22T08:12:53.609Z,376.88
2022-09-22T08:13:53.600Z,388.12
2022-09-22T08:14:53.597Z,393.75
2022-09-22T08:15:53.627Z,399.38
2022-09-22T08:16:54.011Z,405.00
2022-09-22T08:17:53.569Z,410.62
2022-09-22T08:18:53.563Z,410.62
2022-09-22T08:19:53.568Z,410.62
2022-09-22T08:20:53.543Z,416.25
2022-09-22T08:21:53.571Z,416.25
2022-09-22T08:22:53.534Z,421.88
2022-09-22T08:23:53.521Z,433.12
2022-09-22T08:24:53.516Z,421.88
2022-09-22T08:25:53.506Z,416.25
2022-09-22T08:26:53.495Z,427.50
2022-09-22T08:27:53.482Z,444.38
2022-09-22T08:28:53.686Z,455.62
2022-09-22T08:29:53.474Z,483.75
2022-09-22T08:30:54.235Z,489.38
2022-09-22T08:31:53.501Z,483.75
2022-09-22T08:32:53.442Z,461.25
2022-09-22T08:33:53.444Z,438.75
2022-09-22T08:34:53.430Z,433.12
2022-09-22T08:35:53.425Z,427.50
2022-09-22T08:36:54.164Z,421.88
2022-09-22T08:37:53.431Z,410.62
2022-09-22T08:38:53.397Z,388.12
2022-09-22T08:39:54.240Z,371.25
2022-09-22T08:40:53.414Z,360.00
2022-09-22T08:41:53.370Z,343.12
2022-09-22T08:42:54.435Z,320.62
2022-09-22T08:43:53.357Z,303.75
2022-09-22T08:44:53.354Z,292.50
2022-09-22T08:45:53.362Z,281.25
2022-09-22T08:46:53.405Z,275.62
2022-09-22T08:47:53.325Z,264.38
2022-09-22T08:48:53.331Z,264.38
2022-09-22T08:49:53.312Z,264.38
2022-09-22T08:50:53.305Z,253.12
2022-09-22T08:51:53.289Z,253.12
2022-09-22T08:52:53.285Z,247.50
2022-09-22T08:53:53.273Z,247.50
2022-09-22T08:54:53.267Z,247.50
2022-09-22T08:56:59.542Z,247.50
2022-09-22T08:57:59.547Z,241.88
2022-09-22T08:59:00.624Z,241.88
2022-09-22T09:00:00.645Z,241.88
2022-09-22T09:01:00.621Z,241.88
2022-09-22T09:02:00.670Z,236.25
2022-09-22T09:03:00.624Z,241.88
2022-09-22T09:04:00.669Z,236.25
2022-09-22T09:05:00.661Z,236.25
2022-09-22T09:06:00.563Z,236.25
2022-09-22T09:07:00.622Z,236.25
2022-09-22T09:08:00.577Z,236.25
2022-09-22T09:09:04.786Z,236.25
2022-09-22T09:10:01.605Z,236.25
2022-09-22T09:11:00.519Z,236.25
2022-09-22T09:12:00.527Z,236.25
2022-09-22T09:13:00.547Z,236.25
2022-09-22T09:14:00.602Z,230.62
2022-09-22T09:15:00.488Z,230.62
2022-09-22T09:16:00.563Z,230.62
2022-09-22T09:17:00.477Z,230.62
2022-09-22T09:18:00.472Z,230.62
2022-09-22T09:19:00.467Z,230.62
2022-09-22T09:20:00.453Z,230.62
2022-09-22T09:21:00.447Z,230.62
2022-09-22T09:22:00.455Z,230.62
2022-09-22T09:23:00.479Z,230.62
2022-09-22T09:26:02.408Z,230.62
2022-09-22T09:27:00.393Z,230.62
2022-09-22T09:28:00.422Z,230.62
2022-09-22T09:29:05.891Z,230.62
2022-09-22T09:30:02.386Z,230.62
2022-09-22T09:31:00.393Z,230.62
2022-09-22T09:32:00.918Z,230.62
2022-09-22T09:33:00.354Z,230.62
2022-09-22T09:34:00.346Z,230.62
2022-09-22T09:35:00.418Z,230.62
2022-09-22T09:36:00.917Z,230.62
2022-09-22T09:37:00.330Z,230.62
2022-09-22T09:38:00.309Z,230.62
2022-09-22T09:39:00.348Z,230.62
2022-09-22T09:40:00.298Z,230.62
2022-09-22T09:41:00.312Z,225.00
2022-09-22T09:42:00.273Z,236.25
2022-09-22T09:43:01.666Z,225.00
2022-09-22T09:44:00.270Z,225.00
2022-09-22T09:45:00.260Z,225.00
2022-09-22T09:46:00.337Z,225.00
2022-09-22T09:47:00.232Z,225.00
2022-09-22T09:48:00.237Z,225.00
2022-09-22T09:49:00.246Z,225.00
2022-09-22T09:50:00.250Z,230.62
2022-09-22T09:51:00.226Z,225.00
2022-09-22T09:52:00.196Z,225.00
2022-09-22T09:53:00.202Z,230.62
2022-09-22T09:54:00.181Z,230.62
2022-09-22T09:55:00.207Z,230.62
2022-09-22T09:56:00.182Z,230.62
2022-09-22T09:57:00.162Z,230.62
2022-09-22T09:58:00.146Z,230.62
2022-09-22T09:59:00.266Z,230.62
2022-09-22T10:00:00.627Z,230.62
2022-09-22T10:01:00.123Z,230.62
2022-09-22T10:02:00.226Z,230.62
2022-09-22T10:03:02.997Z,230.62
2022-09-22T10:04:00.219Z,247.50
2022-09-22T10:05:00.093Z,230.62
2022-09-22T10:06:00.079Z,230.62
2022-09-22T10:07:01.551Z,230.62
2022-09-22T10:08:01.154Z,230.62
2022-09-22T10:09:00.114Z,230.62
2022-09-22T10:10:00.191Z,236.25
2022-09-22T10:11:00.064Z,236.25
2022-09-22T10:12:00.038Z,236.25
2022-09-22T10:13:00.064Z,236.25
2022-09-22T10:14:00.015Z,236.25
2022-09-22T10:15:00.018Z,236.25
2022-09-22T10:16:00.028Z,236.25
2022-09-22T10:17:00.009Z,236.25
2022-09-22T10:18:00.004Z,236.25
2022-09-22T10:18:59.976Z,236.25
2022-09-22T10:19:59.973Z,236.25
2022-09-22T10:20:59.966Z,253.12
2022-09-22T10:21:59.971Z,236.25
2022-09-22T10:22:59.964Z,236.25
2022-09-22T10:23:59.970Z,236.25
2022-09-22T10:24:59.930Z,236.25
2022-09-22T10:25:59.919Z,236.25
2022-09-22T10:27:02.535Z,236.25
2022-09-22T10:28:00.909Z,236.25
2022-09-22T10:28:59.890Z,236.25
2022-09-22T10:29:59.886Z,241.88
2022-09-22T10:30:59.933Z,236.25
2022-09-22T10:31:59.900Z,236.25
2022-09-22T10:32:59.860Z,236.25
2022-09-22T10:33:59.853Z,236.25
2022-09-22T10:34:59.855Z,236.25
2022-09-22T10:35:59.837Z,241.88
2022-09-22T10:36:59.867Z,241.88
2022-09-22T10:37:59.827Z,241.88
2022-09-22T10:39:00.213Z,241.88
2022-09-22T10:39:59.803Z,241.88
2022-09-22T10:40:59.793Z,247.50
2022-09-22T10:41:59.792Z,247.50
2022-09-22T10:42:59.774Z,247.50
2022-09-22T10:44:03.115Z,247.50
2022-09-22T10:45:01.763Z,247.50
2022-09-22T10:45:59.764Z,253.12
2022-09-22T10:46:59.748Z,253.12
2022-09-22T10:47:59.748Z,253.12
2022-09-22T10:49:00.553Z,253.12
2022-09-22T10:49:59.724Z,253.12
2022-09-22T10:50:59.707Z,253.12
2022-09-22T10:51:59.706Z,253.12
2022-09-22T10:52:59.727Z,258.75
2022-09-22T10:53:59.707Z,258.75
2022-09-22T10:54:59.700Z,258.75
2022-09-22T10:55:59.668Z,258.75
2022-09-22T10:56:59.671Z,253.12
2022-09-22T10:57:59.666Z,258.75
2022-09-22T10:58:59.672Z,258.75
2022-09-22T10:59:59.640Z,258.75
2022-09-22T11:01:01.059Z,258.75
2022-09-22T11:01:59.884Z,253.12
2022-09-22T11:02:59.644Z,258.75
2022-09-22T11:03:59.865Z,258.75
2022-09-22T11:04:59.660Z,258.75
2022-09-22T11:05:59.617Z,247.50
2022-09-22T11:06:59.572Z,247.50
2022-09-22T11:07:59.581Z,247.50
2022-09-22T11:08:59.607Z,253.12
2022-09-22T11:09:59.552Z,253.12
2022-09-22T11:10:59.563Z,253.12
2022-09-22T11:11:59.540Z,253.12
2022-09-22T11:12:59.527Z,258.75
2022-09-22T11:13:59.670Z,258.75
2022-09-22T11:14:59.533Z,258.75
2022-09-22T11:15:59.548Z,270.00
2022-09-22T11:16:59.521Z,275.62
2022-09-22T11:17:59.492Z,275.62
2022-09-22T11:18:59.485Z,281.25
2022-09-22T11:19:59.491Z,275.62
2022-09-22T11:20:59.482Z,275.62
2022-09-22T11:21:59.470Z,270.00
2022-09-22T11:22:59.453Z,270.00
2022-09-22T11:23:59.438Z,281.25
2022-09-22T11:24:59.439Z,286.88
2022-09-22T11:25:59.478Z,292.50
2022-09-22T11:26:59.428Z,292.50
2022-09-22T11:27:59.419Z,292.50
2022-09-22T11:28:59.402Z,298.12
2022-09-22T11:29:59.413Z,303.75
2022-09-22T11:30:59.482Z,303.75
2022-09-22T11:31:59.406Z,303.75
2022-09-22T11:32:59.426Z,303.75
2022-09-22T11:33:59.361Z,298.12
2022-09-22T11:34:59.363Z,292.50
2022-09-22T11:35:59.348Z,292.50
2022-09-22T11:36:59.341Z,298.12
2022-09-22T11:37:59.339Z,298.12
2022-09-22T11:38:59.328Z,303.75
2022-09-22T11:39:59.307Z,303.75
2022-09-22T11:41:00.432Z,303.75
2022-09-22T11:41:59.295Z,303.75
2022-09-22T11:43:02.143Z,309.38
2022-09-22T11:44:00.361Z,309.38
2022-09-22T11:44:59.274Z,315.00
2022-09-22T11:45:59.288Z,315.00
2022-09-22T11:47:00.254Z,320.62
2022-09-22T11:47:59.248Z,326.25
2022-09-22T11:48:59.232Z,326.25
2022-09-22T11:49:59.235Z,331.88
2022-09-22T11:50:59.213Z,337.50
2022-09-22T11:51:59.213Z,331.88
2022-09-22T11:52:59.198Z,315.00
2022-09-22T11:53:59.286Z,303.75
2022-09-22T11:55:01.114Z,298.12
2022-09-22T11:56:00.180Z,298.12
2022-09-22T11:56:59.162Z,298.12
2022-09-22T11:57:59.164Z,303.75
2022-09-22T11:58:59.170Z,303.75
2022-09-22T11:59:59.141Z,309.38
2022-09-22T12:00:59.149Z,315.00
2022-09-22T12:01:59.177Z,326.25
2022-09-22T12:03:02.033Z,331.88
2022-09-22T12:04:00.124Z,331.88
2022-09-22T12:04:59.106Z,331.88
2022-09-22T12:05:59.108Z,337.50
2022-09-22T12:06:59.095Z,343.12
2022-09-22T12:07:59.079Z,343.12
2022-09-22T12:08:59.086Z,348.75
2022-09-22T12:09:59.065Z,348.75
2022-09-22T12:10:59.057Z,354.38
2022-09-22T12:11:59.968Z,360.00
2022-09-22T12:13:00.539Z,365.62
2022-09-22T12:13:59.080Z,371.25
2022-09-22T12:14:59.049Z,371.25
2022-09-22T12:15:59.204Z,376.88
2022-09-22T12:16:59.003Z,376.88
2022-09-22T12:17:59.012Z,388.12
2022-09-22T12:19:00.065Z,382.50
2022-09-22T12:19:59.030Z,382.50
2022-09-22T12:20:58.981Z,388.12
2022-09-22T12:21:58.981Z,393.75
2022-09-22T12:22:58.963Z,393.75
2022-09-22T12:23:59.026Z,388.12
2022-09-22T12:24:59.559Z,376.88
2022-09-22T12:25:58.937Z,371.25
2022-09-22T12:26:58.935Z,354.38
2022-09-22T12:27:58.955Z,343.12
2022-09-22T12:28:58.916Z,337.50
2022-09-22T12:29:58.903Z,337.50
2022-09-22T12:30:59.045Z,337.50
2022-09-22T12:31:58.908Z,331.88
2022-09-22T12:32:58.874Z,326.25
2022-09-22T12:33:58.950Z,320.62
2022-09-22T12:34:58.864Z,309.38
2022-09-22T12:35:58.855Z,309.38
2022-09-22T12:36:58.855Z,309.38
2022-09-22T12:37:58.834Z,315.00
2022-09-22T12:38:58.840Z,320.62
2022-09-22T12:39:58.820Z,326.25
2022-09-22T12:40:58.811Z,326.25
2022-09-22T12:41:58.814Z,320.62
2022-09-22T12:42:58.802Z,326.25
2022-09-22T12:43:58.790Z,326.25
2022-09-22T12:44:58.787Z,326.25
2022-09-22T12:45:58.826Z,320.62
2022-09-22T12:46:58.773Z,309.38
2022-09-22T12:47:59.476Z,303.75
2022-09-22T12:48:58.797Z,303.75
2022-09-22T12:49:59.767Z,298.12
2022-09-22T12:50:58.766Z,298.12
2022-09-22T12:51:59.182Z,292.50
2022-09-22T12:52:58.731Z,292.50
2022-09-22T12:53:59.711Z,292.50
2022-09-22T12:54:58.804Z,292.50